Dades meteomassalio
Diari Summary for Diciembre 10, 2017 Units:  Metric    English   Both
« Previous Day
Next Day »
Diari Semanal Mensual Anual Personalitzat
  Maxima: Minima: Mijana:
Temperatura: -17.8 °C -17.8 °C -12.3 °C
Rosada: -17.8 °C -20.8 °C -16 °C
Humitat: Humidity % 50 % 64 %
Velocitat del vent: 0 km/h 0 km/h 16.1 km/h
Racha vent: 0 km/h - -
Vent:- - WNW
Pressio: 0 hPa 33799.1 hPa -
Pluja: 0 mm    
Historical Graphs
 
 
Tabular Data for Diciembre 10, 2017
Time Temperature Dew Point Pressure Wind Wind Speed Wind Gust Humidity Rainfall Rate (Hourly) solar Conditions
-17.8 °C -17.8 °C 0 hPa Calm     Humidity % 0 mm SolarRadiationWatts/m^2 W/m2 Conditions
00:01 -14.4 °C -16.6 °C 34611.7 hPa Calm     76 % 0 mm 0.0 W/m2 CLR
00:06 -14.4 °C -16.4 °C 34611.7 hPa Calm     77 % 0 mm 0.0 W/m2 CLR
00:11 -14.7 °C -16.8 °C 34601.5 hPa Calm     77 % 0 mm 0.0 W/m2 CLR
00:21 -15 °C -17.1 °C 34601.5 hPa Calm     77 % 0 mm 0.0 W/m2 CLR
00:26 -15 °C -17.1 °C 34601.5 hPa Calm     77 % 0 mm 0.0 W/m2 CLR
00:31 -15 °C -16.9 °C 34591.4 hPa Calm     78 % 0 mm 0.0 W/m2 CLR
00:46 -15.3 °C -17.2 °C 34591.4 hPa Calm     79 % 0 mm 0.0 W/m2 CLR
00:51 -15.3 °C -17.2 °C 34577.8 hPa Calm     79 % 0 mm 0.0 W/m2 CLR
00:56 -15 °C -16.8 °C 34577.8 hPa Calm     79 % 0 mm 0.0 W/m2 CLR
01:01 -15 °C -16.8 °C 34577.8 hPa Calm     79 % 0 mm 0.0 W/m2 CLR
01:11 -15 °C -16.8 °C 34577.8 hPa Calm     80 % 0 mm 0.0 W/m2 CLR
01:16 -15 °C -16.7 °C 34567.7 hPa Calm     81 % 0 mm 0.0 W/m2 CLR
01:21 -15 °C -16.8 °C 34567.7 hPa Calm     80 % 0 mm 0.0 W/m2 CLR
01:26 -15.3 °C -17.1 °C 34567.7 hPa Calm     80 % 0 mm 0.0 W/m2 CLR
01:31 -15.3 °C -17.1 °C 34567.7 hPa Calm     80 % 0 mm 0.0 W/m2 CLR
01:36 -15.3 °C -17.2 °C 34554.1 hPa Calm     79 % 0 mm 0.0 W/m2 CLR
01:41 -15.3 °C -17.1 °C 34554.1 hPa Calm     80 % 0 mm 0.0 W/m2 CLR
01:46 -15.3 °C -17 °C 34554.1 hPa Calm     81 % 0 mm 0.0 W/m2 CLR
01:51 -15.3 °C -17 °C 34544 hPa Calm     81 % 0 mm 0.0 W/m2 CLR
02:01 -15.6 °C -17.2 °C 34544 hPa Calm     82 % 0 mm 0.0 W/m2 CLR
02:06 -15.6 °C -17.1 °C 34544 hPa Calm     83 % 0 mm 0.0 W/m2 CLR
02:11 -15.3 °C -16.8 °C 34544 hPa Calm     83 % 0 mm 0.0 W/m2 CLR
02:16 -15.6 °C -17.1 °C 34544 hPa Calm     83 % 0 mm 0.0 W/m2 CLR
02:21 -15.6 °C -17.1 °C 34544 hPa Calm     83 % 0 mm 0.0 W/m2 CLR
02:26 -15.9 °C -17.4 °C 34533.8 hPa Calm     82 % 0 mm 0.0 W/m2 CLR
02:42 -16.2 °C -17.7 °C 34533.8 hPa Calm     83 % 0 mm 0.0 W/m2 CLR
02:47 -16.2 °C -17.6 °C 34544 hPa Calm     84 % 0 mm 0.0 W/m2 CLR
02:52 -16.2 °C -17.6 °C 34544 hPa Calm     84 % 0 mm 0.0 W/m2 CLR
02:57 -15.9 °C -17.3 °C 34533.8 hPa Calm     84 % 0 mm 0.0 W/m2 CLR
03:07 -15.9 °C -17.2 °C 34533.8 hPa Calm     85 % 0 mm 0.0 W/m2 CLR
03:17 -15.9 °C -17.3 °C 34533.8 hPa Calm     84 % 0 mm 0.0 W/m2 CLR
03:22 -15.9 °C -17.4 °C 34533.8 hPa Calm     83 % 0 mm 0.0 W/m2 CLR
03:27 -16.2 °C -17.6 °C 34520.3 hPa Calm     84 % 0 mm 0.0 W/m2 CLR
03:37 -16.2 °C -17.6 °C 34520.3 hPa Calm     84 % 0 mm 0.0 W/m2 CLR
03:42 -16.6 °C -17.9 °C 34510.1 hPa Calm     84 % 0 mm 0.0 W/m2 CLR
03:47 -16.2 °C -17.6 °C 34510.1 hPa Calm     84 % 0 mm 0.0 W/m2 CLR
03:52 -16.2 °C -17.5 °C 34510.1 hPa Calm     85 % 0 mm 0.0 W/m2 CLR
03:57 -16.2 °C -17.5 °C 34496.6 hPa Calm     85 % 0 mm 0.0 W/m2 CLR
04:02 -16.2 °C -17.5 °C 34510.1 hPa Calm     85 % 0 mm 0.0 W/m2 CLR
04:19 -16.6 °C -17.7 °C 34496.6 hPa Calm     86 % 0 mm 0.0 W/m2 CLR
04:20 -16.8 °C -18 °C 34496.6 hPa Calm     86 % 0 mm 0.0 W/m2 CLR
04:23 -16.8 °C -17.9 °C 34496.6 hPa Calm     87 % 0 mm 0.0 W/m2 CLR
04:25 -16.8 °C -18 °C 34496.6 hPa Calm     86 % 0 mm 0.0 W/m2 CLR
04:30 -16.8 °C -18 °C 34496.6 hPa Calm     86 % 0 mm 0.0 W/m2 CLR
04:40 -17.2 °C -18.2 °C 34496.6 hPa Calm     87 % 0 mm 0.0 W/m2 CLR
04:50 -17.2 °C -18.2 °C 34486.4 hPa Calm     87 % 0 mm 0.0 W/m2 CLR
04:55 -17.2 °C -18.2 °C 34486.4 hPa Calm     87 % 0 mm 0.0 W/m2 CLR
05:01 -17.2 °C -18.2 °C 34486.4 hPa Calm     88 % 0 mm 0.0 W/m2 CLR
05:06 -17.2 °C -18.2 °C 34486.4 hPa Calm     87 % 0 mm 0.0 W/m2 CLR
05:11 -17.2 °C -18.2 °C 34476.3 hPa Calm     87 % 0 mm 0.0 W/m2 CLR
05:21 -17.2 °C -18.2 °C 34476.3 hPa Calm     87 % 0 mm 0.0 W/m2 CLR
05:26 -17.2 °C -18.2 °C 34476.3 hPa Calm     87 % 0 mm 0.0 W/m2 CLR
05:31 -17.2 °C -18.2 °C 34476.3 hPa Calm     88 % 0 mm 0.0 W/m2 CLR
05:36 -17.2 °C -18.2 °C 34476.3 hPa Calm     88 % 0 mm 0.0 W/m2 CLR
05:41 -17.2 °C -18.2 °C 34476.3 hPa Calm     88 % 0 mm 0.0 W/m2 CLR
05:46 -17.2 °C -18.2 °C 34476.3 hPa Calm     88 % 0 mm 0.0 W/m2 CLR
05:56 -17.2 °C -18.2 °C 34476.3 hPa Calm     88 % 0 mm 0.0 W/m2 CLR
06:06 -17.4 °C -18 °C 34462.7 hPa WNW 32.8 km/h 32.8 km/h 93 % 0 mm 0.0 W/m2 CLR
06:11 -17.8 °C -19.1 °C 34462.7 hPa WNW 29.8 km/h 29.8 km/h 84 % 0 mm 0.0 W/m2 CLR
06:16 -17.8 °C -19.7 °C 34462.7 hPa WNW 29.8 km/h 29.8 km/h 78 % 0 mm 0.0 W/m2 CLR
06:21 -17.8 °C -20.3 °C 34452.6 hPa NW 36.2 km/h 36.2 km/h 71 % 0 mm 0.0 W/m2 CLR
06:26 -17.8 °C -20.6 °C 34462.7 hPa West 32.8 km/h 32.8 km/h 69 % 0 mm 0.0 W/m2 CLR
06:31 -17.8 °C -20.6 °C 34452.6 hPa West 23.8 km/h 23.8 km/h 69 % 0 mm 0.0 W/m2 CLR
06:33 -17.8 °C -20.6 °C 34452.6 hPa West 20.9 km/h 20.9 km/h 69 % 0 mm 0.0 W/m2 CLR
06:38 -17.8 °C -20.2 °C 34452.6 hPa NW 29.8 km/h 29.8 km/h 72 % 0 mm 0.0 W/m2 CLR
06:48 -17.8 °C -20.4 °C 34452.6 hPa WNW 44.7 km/h 44.7 km/h 70 % 0 mm 0.0 W/m2 CLR
06:58 -17.8 °C -20.8 °C 34442.4 hPa WNW 35.7 km/h 35.7 km/h 67 % 0 mm 0.0 W/m2 CLR
07:03 -17.4 °C -20.5 °C 34442.4 hPa West 32.8 km/h 32.8 km/h 67 % 0 mm 0.0 W/m2 CLR
07:13 -16.6 °C -19.7 °C 34442.4 hPa West 31.1 km/h 31.1 km/h 66 % 0 mm 0.0 W/m2 CLR
07:18 -16.2 °C -19.3 °C 34452.6 hPa WNW 29.8 km/h 29.8 km/h 67 % 0 mm 0.0 W/m2 CLR
07:19 -16.2 °C -19.3 °C 34452.6 hPa WNW 29.8 km/h 29.8 km/h 67 % 0 mm 0.0 W/m2 CLR
07:24 -15.9 °C -19 °C 34452.6 hPa West 35.7 km/h 35.7 km/h 67 % 0 mm 0.0 W/m2 CLR
07:29 -15.6 °C -18.7 °C 34442.4 hPa West 29.8 km/h 29.8 km/h 67 % 0 mm 0.0 W/m2 CLR
07:34 -15 °C -18 °C 34442.4 hPa WNW 23.3 km/h 23.3 km/h 68 % 0 mm 0.0 W/m2 CLR
07:44 -14.4 °C -17.4 °C 34452.6 hPa WNW 18.2 km/h 18.2 km/h 68 % 0 mm 0.0 W/m2 CLR
07:49 -14.1 °C -17.1 °C 34442.4 hPa West 17.9 km/h 17.9 km/h 68 % 0 mm 0.0 W/m2 CLR
07:54 -13.4 °C -16.4 °C 34442.4 hPa West 23.8 km/h 23.8 km/h 69 % 0 mm 0.0 W/m2 CLR
08:04 -13.4 °C -16.4 °C 34442.4 hPa West 26.9 km/h 26.9 km/h 69 % 0 mm 0.0 W/m2 OVC
08:09 -13.4 °C -16.4 °C 34442.4 hPa West 11.9 km/h 11.9 km/h 69 % 0 mm 0.0 W/m2 OVC
08:14 -12.8 °C -15.8 °C 34428.8 hPa WNW 23.8 km/h 23.8 km/h 69 % 0 mm 0.0 W/m2 OVC
08:19 -12.6 °C -15.5 °C 34442.4 hPa WNW 9 km/h 9 km/h 69 % 0 mm 0.0 W/m2 OVC
08:24 -12.6 °C -15.5 °C 34442.4 hPa WNW 9 km/h 9 km/h 69 % 0 mm 0.0 W/m2 OVC
08:29 -12.8 °C -15.8 °C 34442.4 hPa WNW 20.9 km/h 20.9 km/h 69 % 0 mm 7.0 W/m2 BKN
08:44 -13.4 °C -16.8 °C 34442.4 hPa WNW 26.9 km/h 26.9 km/h 66 % 0 mm 25.0 W/m2 BKN
08:49 -13.4 °C -16.8 °C 34452.6 hPa WNW 29.8 km/h 29.8 km/h 66 % 0 mm 30.0 W/m2 BKN
08:54 -13.4 °C -16.9 °C 34452.6 hPa WNW 35.7 km/h 35.7 km/h 65 % 0 mm 26.0 W/m2 BKN
08:59 -13.4 °C -16.9 °C 34452.6 hPa NW 32.8 km/h 32.8 km/h 65 % 0 mm 21.0 W/m2 BKN
09:04 -13.2 °C -16.7 °C 34452.6 hPa NW 32.8 km/h 32.8 km/h 64 % 0 mm 30.0 W/m2 BKN
09:14 -12.6 °C -16.2 °C 34442.4 hPa WNW 35.7 km/h 35.7 km/h 64 % 0 mm 51.0 W/m2 BKN
09:19 -11.9 °C -15.7 °C 34442.4 hPa WNW 32.8 km/h 32.8 km/h 63 % 0 mm 51.0 W/m2 SCT
09:24 -11 °C -14.9 °C 34442.4 hPa WNW 38.8 km/h 38.8 km/h 62 % 0 mm 81.0 W/m2 SCT
09:29 -10.4 °C -14.3 °C 34442.4 hPa WNW 35.7 km/h 35.7 km/h 62 % 0 mm 81.0 W/m2 FEW
09:34 -10.4 °C -14.5 °C 34452.6 hPa NW 41.7 km/h 41.7 km/h 61 % 0 mm 86.0 W/m2 FEW
09:39 -10.1 °C -14.2 °C 34452.6 hPa WNW 47.6 km/h 47.6 km/h 61 % 0 mm 70.0 W/m2 FEW
09:49 -10.1 °C -14.3 °C 34442.4 hPa NW 41.7 km/h 41.7 km/h 60 % 0 mm 51.0 W/m2 SCT
09:54 -10.1 °C -14.3 °C 34442.4 hPa WNW 41.7 km/h 41.7 km/h 60 % 0 mm 63.0 W/m2 SCT
09:59 -9.8 °C -14.2 °C 34442.4 hPa WNW 41.7 km/h 41.7 km/h 59 % 0 mm 42.0 W/m2 SCT
10:14 -9.8 °C -14.3 °C 34428.8 hPa NW 38.8 km/h 38.8 km/h 58 % 0 mm 86.0 W/m2 SCT
10:20 -9.8 °C -14.3 °C 34418.7 hPa NW 29.8 km/h 29.8 km/h 58 % 0 mm 165.0 W/m2 FEW
10:25 -9.4 °C -14 °C 34418.7 hPa WNW 38.8 km/h 38.8 km/h 58 % 0 mm 183.0 W/m2 CLR
10:30 -9.4 °C -14 °C 34418.7 hPa West 41.4 km/h 41.4 km/h 58 % 0 mm 193.0 W/m2 CLR
10:35 -9.4 °C -14 °C 34405.1 hPa WNW 32.8 km/h 32.8 km/h 58 % 0 mm 158.0 W/m2 CLR
10:40 -9.4 °C -14 °C 34405.1 hPa WNW 26.9 km/h 26.9 km/h 58 % 0 mm 171.0 W/m2 CLR
10:45 -9.1 °C -13.7 °C 34405.1 hPa West 32.8 km/h 32.8 km/h 58 % 0 mm 181.0 W/m2 CLR
10:50 -9.1 °C -13.8 °C 34405.1 hPa WNW 32.8 km/h 32.8 km/h 57 % 0 mm 186.0 W/m2 CLR
10:55 -9.1 °C -13.8 °C 34395 hPa WNW 29.8 km/h 29.8 km/h 57 % 0 mm 174.0 W/m2 CLR
11:00 -9.1 °C -13.8 °C 34395 hPa NW 36.2 km/h 36.2 km/h 57 % 0 mm 178.0 W/m2 CLR
11:01 -9.1 °C -14 °C 34395 hPa NW 38.8 km/h 38.8 km/h 56 % 0 mm 171.0 W/m2 CLR
11:06 -9.1 °C -14 °C 34405.1 hPa WNW 26.9 km/h 26.9 km/h 56 % 0 mm 155.0 W/m2 CLR
11:11 -9.1 °C -14 °C 34405.1 hPa NW 41.7 km/h 41.7 km/h 56 % 0 mm 153.0 W/m2 CLR
11:16 -8.8 °C -13.7 °C 34395 hPa WNW 44.7 km/h 44.7 km/h 56 % 0 mm 163.0 W/m2 CLR
11:21 -8.8 °C -13.8 °C 34395 hPa WNW 53.6 km/h 53.6 km/h 55 % 0 mm 171.0 W/m2 CLR
11:31 -8.8 °C -13.8 °C 34384.8 hPa WNW 44.7 km/h 44.7 km/h 55 % 0 mm 174.0 W/m2 CLR
11:36 -8.8 °C -14 °C 34384.8 hPa NW 41.7 km/h 41.7 km/h 54 % 0 mm 165.0 W/m2 CLR
11:41 -8.8 °C -14 °C 34384.8 hPa WNW 56.6 km/h 56.6 km/h 54 % 0 mm 183.0 W/m2 CLR
11:46 -8.8 °C -14 °C 34384.8 hPa NW 64.7 km/h 64.7 km/h 54 % 0 mm 192.0 W/m2 CLR
11:51 -8.8 °C -14.2 °C 34371.3 hPa NW 50.7 km/h 50.7 km/h 53 % 0 mm 202.0 W/m2 CLR
11:56 -8.8 °C -14.2 °C 34361.1 hPa NW 59.5 km/h 59.5 km/h 53 % 0 mm 207.0 W/m2 CLR
12:01 -8.8 °C -14.2 °C 34361.1 hPa NW 50.7 km/h 50.7 km/h 53 % 0 mm 221.0 W/m2 CLR
12:11 -8.5 °C -13.8 °C 34347.6 hPa NW 41.7 km/h 41.7 km/h 53 % 0 mm 281.0 W/m2 CLR
12:16 -8.5 °C -13.8 °C 34337.4 hPa NNW 44.1 km/h 44.1 km/h 53 % 0 mm 234.0 W/m2 CLR
12:22 -8.5 °C -13.8 °C 34337.4 hPa NNW 33.6 km/h 33.6 km/h 53 % 0 mm 211.0 W/m2 CLR
12:27 -8.5 °C -14 °C 34327.3 hPa NW 35.7 km/h 35.7 km/h 52 % 0 mm 204.0 W/m2 CLR
12:32 -8.5 °C -14 °C 34313.7 hPa WNW 35.7 km/h 35.7 km/h 52 % 0 mm 181.0 W/m2 CLR
12:37 -8.5 °C -13.8 °C 34313.7 hPa North 38.8 km/h 38.8 km/h 53 % 0 mm 162.0 W/m2 CLR
12:42 -8.5 °C -14 °C 34313.7 hPa NW 41.7 km/h 41.7 km/h 52 % 0 mm 149.0 W/m2 CLR
12:47 -8.5 °C -14 °C 34303.6 hPa NW 29.8 km/h 29.8 km/h 52 % 0 mm 142.0 W/m2 CLR
12:52 -8.5 °C -13.8 °C 34303.6 hPa WNW 29.8 km/h 29.8 km/h 53 % 0 mm 158.0 W/m2 CLR
12:57 -8.5 °C -14 °C 34303.6 hPa WNW 32.8 km/h 32.8 km/h 52 % 0 mm 158.0 W/m2 CLR
13:02 -8.5 °C -13.8 °C 34303.6 hPa NW 29.8 km/h 29.8 km/h 53 % 0 mm 160.0 W/m2 CLR
13:17 -8.2 °C -13.7 °C 34293.4 hPa NW 26.9 km/h 26.9 km/h 52 % 0 mm 186.0 W/m2 CLR
13:22 -8.2 °C -13.7 °C 34279.9 hPa NW 41.4 km/h 41.4 km/h 52 % 0 mm 167.0 W/m2 CLR
13:32 -8.2 °C -13.9 °C 34269.7 hPa NW 26.9 km/h 26.9 km/h 51 % 0 mm 188.0 W/m2 CLR
13:37 -8.2 °C -13.9 °C 34269.7 hPa NW 26.9 km/h 26.9 km/h 51 % 0 mm 197.0 W/m2 CLR
13:42 -8.2 °C -13.9 °C 34256.2 hPa North 38.8 km/h 38.8 km/h 51 % 0 mm 237.0 W/m2 CLR
13:47 -7.9 °C -13.6 °C 34256.2 hPa NNW 35.7 km/h 35.7 km/h 51 % 0 mm 221.0 W/m2 CLR
13:52 -7.9 °C -13.8 °C 34256.2 hPa North 49.2 km/h 49.2 km/h 50 % 0 mm 169.0 W/m2 CLR
13:57 -7.9 °C -13.8 °C 34246 hPa NW 53.6 km/h 53.6 km/h 50 % 0 mm 149.0 W/m2 CLR
14:02 -8.2 °C -13.9 °C 34246 hPa NNW 47.6 km/h 47.6 km/h 51 % 0 mm 176.0 W/m2 CLR
14:07 -8.2 °C -13.9 °C 34246 hPa NNW 50.7 km/h 50.7 km/h 51 % 0 mm 151.0 W/m2 CLR
14:12 -8.2 °C -13.9 °C 34246 hPa NW 46.7 km/h 46.7 km/h 51 % 0 mm 135.0 W/m2 CLR
14:22 -8.2 °C -13.9 °C 34235.8 hPa NW 32.8 km/h 32.8 km/h 51 % 0 mm 105.0 W/m2 CLR
14:27 -8.2 °C -13.9 °C 34246 hPa NNW 31.1 km/h 31.1 km/h 51 % 0 mm 90.0 W/m2 CLR
14:32 -8.2 °C -13.9 °C 34235.8 hPa NW 38.8 km/h 38.8 km/h 51 % 0 mm 84.0 W/m2 CLR
14:37 -8.2 °C -13.9 °C 34222.3 hPa NW 36.2 km/h 36.2 km/h 51 % 0 mm 90.0 W/m2 CLR
14:42 -8.2 °C -13.9 °C 34212.1 hPa NW 44.7 km/h 44.7 km/h 51 % 0 mm 137.0 W/m2 CLR
14:47 -8.2 °C -13.9 °C 34212.1 hPa NW 50.7 km/h 50.7 km/h 51 % 0 mm 114.0 W/m2 CLR
14:52 -8.2 °C -13.9 °C 34212.1 hPa NNW 47.6 km/h 47.6 km/h 51 % 0 mm 116.0 W/m2 CLR
15:02 -8.2 °C -13.9 °C 34212.1 hPa NNW 44.1 km/h 44.1 km/h 51 % 0 mm 116.0 W/m2 CLR
15:07 -8.2 °C -13.9 °C 34212.1 hPa NNW 50.7 km/h 50.7 km/h 51 % 0 mm 79.0 W/m2 CLR
15:12 -8.2 °C -13.9 °C 34212.1 hPa NNW 44.7 km/h 44.7 km/h 51 % 0 mm 54.0 W/m2 FEW
15:17 -8.5 °C -14 °C 34198.6 hPa NNW 29.8 km/h 29.8 km/h 52 % 0 mm 44.0 W/m2 SCT
15:22 -8.5 °C -14 °C 34198.6 hPa NNW 35.7 km/h 35.7 km/h 52 % 0 mm 40.0 W/m2 SCT
15:32 -8.5 °C -14 °C 34188.4 hPa NW 29.8 km/h 29.8 km/h 52 % 0 mm 51.0 W/m2 BKN
15:37 -8.8 °C -14.3 °C 34188.4 hPa NNW 23.8 km/h 23.8 km/h 52 % 0 mm 49.0 W/m2 SCT
15:42 -8.8 °C -14.2 °C 34188.4 hPa NNW 23.8 km/h 23.8 km/h 53 % 0 mm 44.0 W/m2 SCT
15:52 -8.8 °C -14.2 °C 34178.3 hPa NW 23.8 km/h 23.8 km/h 53 % 0 mm 33.0 W/m2 BKN
16:02 -8.8 °C -14.2 °C 34164.7 hPa NW 12.9 km/h 12.9 km/h 53 % 0 mm 39.0 W/m2 BKN
16:07 -9.1 °C -14.4 °C 34164.7 hPa NW 20.9 km/h 20.9 km/h 53 % 0 mm 39.0 W/m2 BKN
16:12 -9.1 °C -14.4 °C 34154.6 hPa Calm     53 % 0 mm 32.0 W/m2 BKN
16:17 -9.1 °C -14.4 °C 34144.4 hPa Calm     53 % 0 mm 30.0 W/m2 BKN
16:22 -9.4 °C -14.6 °C 34144.4 hPa Calm     54 % 0 mm 25.0 W/m2 BKN
16:27 -9.4 °C -14.6 °C 34144.4 hPa Calm     54 % 0 mm 21.0 W/m2 BKN
16:32 -9.4 °C -14.6 °C 34144.4 hPa Calm     54 % 0 mm 18.0 W/m2 BKN
16:37 -9.4 °C -14.6 °C 34144.4 hPa Calm     54 % 0 mm 12.0 W/m2 BKN
16:43 -9.4 °C -14.6 °C 34144.4 hPa Calm     54 % 0 mm 12.0 W/m2 BKN
16:53 -10.1 °C -15.2 °C 34144.4 hPa Calm     54 % 0 mm 9.0 W/m2 BKN
16:58 -10.1 °C -15.2 °C 34130.9 hPa Calm     54 % 0 mm 7.0 W/m2 BKN
17:03 -10.4 °C -15.4 °C 34130.9 hPa Calm     54 % 0 mm 7.0 W/m2 BKN
17:08 -10.7 °C -15.6 °C 34130.9 hPa Calm     55 % 0 mm 5.0 W/m2 OVC
17:13 -10.7 °C -15.6 °C 34130.9 hPa NW 17.9 km/h 17.9 km/h 55 % 0 mm 0.0 W/m2 OVC
17:18 -11 °C -16 °C 34130.9 hPa WNW 3.1 km/h 3.1 km/h 54 % 0 mm 0.0 W/m2 OVC
17:23 -11 °C -16 °C 34120.7 hPa Calm     54 % 0 mm 0.0 W/m2 OVC
17:28 -11.3 °C -16.3 °C 34120.7 hPa WNW 9 km/h 9 km/h 54 % 0 mm 0.0 W/m2 OVC
17:38 -11.6 °C -16.6 °C 34107.2 hPa Calm     54 % 0 mm 0.0 W/m2 OVC
17:43 -11.6 °C -16.6 °C 34107.2 hPa Calm     54 % 0 mm 0.0 W/m2 CLR
17:48 -11.9 °C -16.7 °C 34097 hPa Calm     55 % 0 mm 0.0 W/m2 CLR
17:58 -11.6 °C -16.3 °C 34097 hPa Calm     56 % 0 mm 0.0 W/m2 CLR
18:08 -11.6 °C -16.3 °C 34086.9 hPa Calm     56 % 0 mm 0.0 W/m2 CLR
18:13 -11.6 °C -16.3 °C 34097 hPa Calm     56 % 0 mm 0.0 W/m2 CLR
18:18 -11.6 °C -16.3 °C 34097 hPa Calm     56 % 0 mm 0.0 W/m2 CLR
18:23 -11.9 °C -16.4 °C 34097 hPa Calm     57 % 0 mm 0.0 W/m2 CLR
18:33 -11.9 °C -16.4 °C 34097 hPa Calm     57 % 0 mm 0.0 W/m2 CLR
18:43 -11.9 °C -16.6 °C 34073.3 hPa Calm     56 % 0 mm 0.0 W/m2 CLR
18:53 -11.9 °C -16.3 °C 34073.3 hPa Calm     58 % 0 mm 0.0 W/m2 CLR
18:58 -11.6 °C -15.9 °C 34063.2 hPa Calm     59 % 0 mm 0.0 W/m2 CLR
19:03 -11.6 °C -15.9 °C 34063.2 hPa Calm     59 % 0 mm 0.0 W/m2 CLR
19:08 -11.6 °C -15.9 °C 34049.6 hPa Calm     59 % 0 mm 0.0 W/m2 CLR
19:13 -11.6 °C -15.8 °C 34049.6 hPa Calm     60 % 0 mm 0.0 W/m2 CLR
19:18 -11.9 °C -16.1 °C 34049.6 hPa Calm     60 % 0 mm 0.0 W/m2 CLR
19:23 -11.9 °C -15.9 °C 34049.6 hPa Calm     61 % 0 mm 0.0 W/m2 CLR
19:29 -12.2 °C -16.2 °C 34039.5 hPa Calm     61 % 0 mm 0.0 W/m2 CLR
19:34 -12.2 °C -16.2 °C 34039.5 hPa Calm     61 % 0 mm 0.0 W/m2 CLR
19:39 -11.9 °C -15.7 °C 34039.5 hPa Calm     63 % 0 mm 0.0 W/m2 CLR
19:49 -11.9 °C -15.6 °C 34029.3 hPa Calm     64 % 0 mm 0.0 W/m2 CLR
19:54 -11.9 °C -15.4 °C 34029.3 hPa Calm     65 % 0 mm 0.0 W/m2 CLR
19:59 -12.2 °C -15.7 °C 34029.3 hPa Calm     65 % 0 mm 0.0 W/m2 CLR
20:04 -12.2 °C -15.9 °C 34015.8 hPa Calm     63 % 0 mm 0.0 W/m2 CLR
20:09 -11.9 °C -15.7 °C 34015.8 hPa Calm     63 % 0 mm 0.0 W/m2 CLR
20:19 -11.9 °C -16.1 °C 33992.1 hPa Calm     60 % 0 mm 0.0 W/m2 CLR
20:24 -11.9 °C -16.2 °C 33981.9 hPa Calm     59 % 0 mm 0.0 W/m2 CLR
20:29 -11.9 °C -16.3 °C 33981.9 hPa SW 5.1 km/h 5.1 km/h 58 % 0 mm 0.0 W/m2 CLR
20:34 -11.9 °C -16.4 °C 33958.2 hPa SW 3.1 km/h   57 % 0 mm 0.0 W/m2 CLR
20:39 -11 °C -15.7 °C 33971.7 hPa Calm     56 % 0 mm 0.0 W/m2 CLR
20:44 -10.4 °C -15.3 °C 33971.7 hPa ENE 15.6 km/h 15.6 km/h 55 % 0 mm 0.0 W/m2 CLR
20:49 -10.7 °C -15.3 °C 33981.9 hPa ENE 29.8 km/h 29.8 km/h 57 % 0 mm 0.0 W/m2 CLR
20:54 -10.7 °C -15.1 °C 33981.9 hPa East 20.9 km/h 20.9 km/h 59 % 0 mm 0.0 W/m2 CLR
21:04 -10.4 °C -14.6 °C 33981.9 hPa NE 23.8 km/h 23.8 km/h 60 % 0 mm 0.0 W/m2 CLR
21:09 -10.7 °C -14.9 °C 33981.9 hPa East 31.1 km/h 31.1 km/h 60 % 0 mm 0.0 W/m2 CLR
21:14 -10.7 °C -14.9 °C 33971.7 hPa ENE 26.9 km/h 26.9 km/h 60 % 0 mm 0.0 W/m2 CLR
21:19 -10.7 °C -14.8 °C 33971.7 hPa Calm     61 % 0 mm 0.0 W/m2 CLR
21:24 -10.7 °C -14.8 °C 33958.2 hPa ENE 20.9 km/h 20.9 km/h 61 % 0 mm 0.0 W/m2 CLR
21:29 -10.7 °C -14.9 °C 33958.2 hPa ENE 20.9 km/h 20.9 km/h 60 % 0 mm 0.0 W/m2 CLR
21:34 -11 °C -15.2 °C 33958.2 hPa Calm     60 % 0 mm 0.0 W/m2 CLR
21:39 -11 °C -15.1 °C 33958.2 hPa Calm     61 % 0 mm 0.0 W/m2 CLR
21:49 -11.3 °C -15.3 °C 33937.9 hPa Calm     61 % 0 mm 0.0 W/m2 CLR
21:59 -11.6 °C -15.6 °C 33924.3 hPa Calm     61 % 0 mm 0.0 W/m2 CLR
22:04 -11.6 °C -15.6 °C 33914.2 hPa Calm     61 % 0 mm 0.0 W/m2 CLR
22:09 -11.6 °C -15.6 °C 33914.2 hPa Calm     61 % 0 mm 0.0 W/m2 CLR
22:14 -11.6 °C -15.8 °C 33900.6 hPa WSW 2.6 km/h   60 % 0 mm 0.0 W/m2 CLR
22:19 -11.9 °C -16.1 °C 33900.6 hPa West 6 km/h   60 % 0 mm 0.0 W/m2 CLR
22:21 -11.6 °C -15.8 °C 33900.6 hPa West 6 km/h 6 km/h 60 % 0 mm 0.0 W/m2 CLR
22:26 -11.3 °C -15.6 °C 33890.5 hPa West 10.3 km/h 10.3 km/h 59 % 0 mm 0.0 W/m2 CLR
22:31 -11.3 °C -15.6 °C 33880.3 hPa Calm     59 % 0 mm 0.0 W/m2 CLR
22:36 -11.6 °C -15.9 °C 33880.3 hPa Calm     59 % 0 mm 0.0 W/m2 CLR
22:41 -11.6 °C -15.9 °C 33880.3 hPa WSW 6 km/h 6 km/h 59 % 0 mm 0.0 W/m2 CLR
22:46 -11.9 °C -16.3 °C 33866.8 hPa Calm     58 % 0 mm 0.0 W/m2 CLR
22:51 -11.9 °C -16.3 °C 33866.8 hPa Calm     58 % 0 mm 0.0 W/m2 CLR
22:56 -11.9 °C -16.1 °C 33866.8 hPa Calm     60 % 0 mm 0.0 W/m2 CLR
23:01 -12.2 °C -16.3 °C 33866.8 hPa Calm     60 % 0 mm 0.0 W/m2 CLR
23:16 -12.6 °C -16.6 °C 33843.1 hPa Calm     60 % 0 mm 0.0 W/m2 CLR
23:26 -12.6 °C -16.5 °C 33843.1 hPa Calm     61 % 0 mm 0.0 W/m2 CLR
23:36 -12.6 °C -16.4 °C 33832.9 hPa Calm     62 % 0 mm 0.0 W/m2 CLR
23:41 -12.2 °C -16.1 °C 33832.9 hPa Calm     62 % 0 mm 0.0 W/m2 CLR
23:46 -12.2 °C -16.1 °C 33822.8 hPa Calm     62 % 0 mm 0.0 W/m2 CLR
23:51 -12.2 °C -15.9 °C 33809.2 hPa Calm     63 % 0 mm 0.0 W/m2 CLR
23:56 -12.2 °C -16.1 °C 33799.1 hPa Calm     62 % 0 mm 0.0 W/m2 CLR
Lo Temps de Massalio
Compliments of Weather Underground - 1 mb